Accueil
METAR-TAF:

METAR-TAF

Aéroports :

Augsbourg, Allemagne

latitude: 48-26N, longitude: 010-56E, altitude: 461 m

Observation

Le bulletin a été fait il y a 37 minutes, à 05:50 UTC
Vent 2 kt de direction variable
Température 10°C
Humidité 76%
Pression 1011 hPa
Visibilité 10 km ou plus
pas de nuages en-dessous de 1500 mètres et pas de cumulonimbus.

METAR: EDMA 250550Z VRB02KT CAVOK 10/06 Q1011

Heure: 08:27 (06:27 UTC)

Prévision

Le bulletin a été fait il y a 1 heure et 27 minutes, à 05:00 UTC
Prévision valable du 25 à 06 UTC au 25 à 15 UTC
Vent 4 kt de sud-est
Visibilité 10 km ou plus
pas de nuages en-dessous de 1500 mètres et pas de cumulonimbus.
Evoluant progressivement
du 25 à 09 UTC au 25 à 11 UTC
Vent 9 kt de sud/sud-est

TAF: EDMA 250500Z 2506/2515 14004KT CAVOK BECMG 2509/2511 16009KT

Observations et prévisions météorologiques de plus de 4000 aéroports (messages METAR et TAF).

Les stations disponibles sont représentées par des disques jaunes et rouges sur la carte.

Passer la souris dessus pour voir le nom de la station.

Cliquer dessus pour voir les observations et prévisions météorologiques.

Pour changer de carte: cliquez sur les boutons verts avec une croix noire pour zoomer, sur le bouton vert avec un tiret pour effectuer un zoom arrière, ou sur les flèches vertes pour les cartes adjacentes.


METAR-TAF: